sensor_id;sensor_type;location;lat;lon;timestamp;temperature;humidity
75010;DHT22;63564;46.840;18.336;2024-02-04T00:01:46;6.62;86.49
75010;DHT22;63564;46.840;18.336;2024-02-04T00:04:46;6.83;85.98
75010;DHT22;63564;46.840;18.336;2024-02-04T00:07:47;6.93;85.71
75010;DHT22;63564;46.840;18.336;2024-02-04T00:10:47;6.93;85.60
75010;DHT22;63564;46.840;18.336;2024-02-04T00:13:47;6.96;85.32
75010;DHT22;63564;46.840;18.336;2024-02-04T00:16:48;6.89;85.55
75010;DHT22;63564;46.840;18.336;2024-02-04T00:19:48;6.72;85.80
75010;DHT22;63564;46.840;18.336;2024-02-04T00:22:48;6.68;85.98
75010;DHT22;63564;46.840;18.336;2024-02-04T00:25:49;6.68;85.83
75010;DHT22;63564;46.840;18.336;2024-02-04T00:28:49;6.62;85.77
75010;DHT22;63564;46.840;18.336;2024-02-04T00:31:50;6.57;85.85
75010;DHT22;63564;46.840;18.336;2024-02-04T00:34:50;6.61;85.64
75010;DHT22;63564;46.840;18.336;2024-02-04T00:37:51;6.61;85.57
75010;DHT22;63564;46.840;18.336;2024-02-04T00:40:51;6.53;85.87
75010;DHT22;63564;46.840;18.336;2024-02-04T00:43:52;6.63;85.50
75010;DHT22;63564;46.840;18.336;2024-02-04T00:46:53;6.76;84.97
75010;DHT22;63564;46.840;18.336;2024-02-04T00:49:53;6.75;84.90
75010;DHT22;63564;46.840;18.336;2024-02-04T00:52:54;6.72;85.07
75010;DHT22;63564;46.840;18.336;2024-02-04T00:55:54;6.83;84.81
75010;DHT22;63564;46.840;18.336;2024-02-04T00:58:54;6.83;84.89
75010;DHT22;63564;46.840;18.336;2024-02-04T01:01:55;6.73;84.96
75010;DHT22;63564;46.840;18.336;2024-02-04T01:04:56;6.49;85.71
75010;DHT22;63564;46.840;18.336;2024-02-04T01:07:56;6.46;86.36
75010;DHT22;63564;46.840;18.336;2024-02-04T01:10:57;6.46;86.21
75010;DHT22;63564;46.840;18.336;2024-02-04T01:13:57;6.55;86.53
75010;DHT22;63564;46.840;18.336;2024-02-04T01:16:57;6.61;86.49
75010;DHT22;63564;46.840;18.336;2024-02-04T01:19:58;6.73;86.27
75010;DHT22;63564;46.840;18.336;2024-02-04T01:22:58;6.80;86.05
75010;DHT22;63564;46.840;18.336;2024-02-04T01:25:58;6.91;85.90
75010;DHT22;63564;46.840;18.336;2024-02-04T01:28:59;7.05;85.70
75010;DHT22;63564;46.840;18.336;2024-02-04T01:31:59;7.12;85.40
75010;DHT22;63564;46.840;18.336;2024-02-04T01:34:59;7.15;85.42
75010;DHT22;63564;46.840;18.336;2024-02-04T01:38:00;7.20;85.40
75010;DHT22;63564;46.840;18.336;2024-02-04T01:41:00;7.17;85.51
75010;DHT22;63564;46.840;18.336;2024-02-04T01:44:00;7.24;85.29
75010;DHT22;63564;46.840;18.336;2024-02-04T01:47:01;7.28;85.10
75010;DHT22;63564;46.840;18.336;2024-02-04T01:50:02;7.27;85.26
75010;DHT22;63564;46.840;18.336;2024-02-04T01:53:03;7.27;85.32
75010;DHT22;63564;46.840;18.336;2024-02-04T01:56:04;7.30;85.18
75010;DHT22;63564;46.840;18.336;2024-02-04T01:59:05;7.25;85.34
75010;DHT22;63564;46.840;18.336;2024-02-04T02:02:06;7.24;85.23
75010;DHT22;63564;46.840;18.336;2024-02-04T02:05:07;7.27;85.38
75010;DHT22;63564;46.840;18.336;2024-02-04T02:08:09;7.20;85.73
75010;DHT22;63564;46.840;18.336;2024-02-04T02:11:14;7.20;85.72
75010;DHT22;63564;46.840;18.336;2024-02-04T02:14:21;7.15;85.76
75010;DHT22;63564;46.840;18.336;2024-02-04T02:17:33;7.20;85.68
75010;DHT22;63564;46.840;18.336;2024-02-04T02:24:52;7.34;85.27
75010;DHT22;63564;46.840;18.336;2024-02-04T02:27:28;7.42;85.11
75010;DHT22;63564;46.840;18.336;2024-02-04T02:30:28;7.45;85.06
75010;DHT22;63564;46.840;18.336;2024-02-04T02:33:29;7.52;85.08
75010;DHT22;63564;46.840;18.336;2024-02-04T02:36:36;7.54;85.16
75010;DHT22;63564;46.840;18.336;2024-02-04T02:39:45;7.59;85.43
75010;DHT22;63564;46.840;18.336;2024-02-04T02:42:46;7.66;85.51
75010;DHT22;63564;46.840;18.336;2024-02-04T02:45:48;7.72;85.43
75010;DHT22;63564;46.840;18.336;2024-02-04T02:48:48;7.83;85.58
75010;DHT22;63564;46.840;18.336;2024-02-04T02:51:48;7.89;85.81
75010;DHT22;63564;46.840;18.336;2024-02-04T02:54:49;7.91;86.43
75010;DHT22;63564;46.840;18.336;2024-02-04T02:57:49;7.94;86.87
75010;DHT22;63564;46.840;18.336;2024-02-04T03:00:49;7.94;87.21
75010;DHT22;63564;46.840;18.336;2024-02-04T03:03:50;7.93;87.70
75010;DHT22;63564;46.840;18.336;2024-02-04T03:06:50;7.90;87.89
75010;DHT22;63564;46.840;18.336;2024-02-04T03:09:52;7.85;88.38
75010;DHT22;63564;46.840;18.336;2024-02-04T03:12:53;7.80;88.69
75010;DHT22;63564;46.840;18.336;2024-02-04T03:15:54;7.86;88.75
75010;DHT22;63564;46.840;18.336;2024-02-04T03:18:54;7.96;88.52
75010;DHT22;63564;46.840;18.336;2024-02-04T03:21:54;7.93;88.41
75010;DHT22;63564;46.840;18.336;2024-02-04T03:24:55;7.94;88.42
75010;DHT22;63564;46.840;18.336;2024-02-04T03:27:55;7.98;88.33
75010;DHT22;63564;46.840;18.336;2024-02-04T03:30:55;8.01;88.13
75010;DHT22;63564;46.840;18.336;2024-02-04T03:33:56;7.98;88.04
75010;DHT22;63564;46.840;18.336;2024-02-04T03:36:56;7.98;88.09
75010;DHT22;63564;46.840;18.336;2024-02-04T03:39:57;7.89;88.09
75010;DHT22;63564;46.840;18.336;2024-02-04T03:42:57;7.89;87.68
75010;DHT22;63564;46.840;18.336;2024-02-04T03:45:57;7.98;86.85
75010;DHT22;63564;46.840;18.336;2024-02-04T03:48:58;7.96;86.78
75010;DHT22;63564;46.840;18.336;2024-02-04T03:51:58;7.87;86.80
75010;DHT22;63564;46.840;18.336;2024-02-04T03:54:59;7.82;87.03
75010;DHT22;63564;46.840;18.336;2024-02-04T03:58:00;7.82;87.04
75010;DHT22;63564;46.840;18.336;2024-02-04T04:01:00;7.82;87.10
75010;DHT22;63564;46.840;18.336;2024-02-04T04:04:00;7.76;87.28
75010;DHT22;63564;46.840;18.336;2024-02-04T04:07:01;7.77;87.06
75010;DHT22;63564;46.840;18.336;2024-02-04T04:10:01;7.70;87.34
75010;DHT22;63564;46.840;18.336;2024-02-04T04:13:02;7.65;87.38
75010;DHT22;63564;46.840;18.336;2024-02-04T04:16:03;7.70;87.26
75010;DHT22;63564;46.840;18.336;2024-02-04T04:19:04;7.63;87.24
75010;DHT22;63564;46.840;18.336;2024-02-04T04:22:04;7.69;87.08
75010;DHT22;63564;46.840;18.336;2024-02-04T04:25:05;7.75;86.70
75010;DHT22;63564;46.840;18.336;2024-02-04T04:28:05;7.82;86.18
75010;DHT22;63564;46.840;18.336;2024-02-04T04:31:06;7.75;86.25
75010;DHT22;63564;46.840;18.336;2024-02-04T04:34:06;7.86;85.72
75010;DHT22;63564;46.840;18.336;2024-02-04T04:37:06;7.91;85.29
75010;DHT22;63564;46.840;18.336;2024-02-04T04:40:07;7.93;85.03
75010;DHT22;63564;46.840;18.336;2024-02-04T04:43:08;7.96;85.29
75010;DHT22;63564;46.840;18.336;2024-02-04T04:46:08;7.87;85.45
75010;DHT22;63564;46.840;18.336;2024-02-04T04:49:09;7.91;84.98
75010;DHT22;63564;46.840;18.336;2024-02-04T04:52:10;7.86;85.25
75010;DHT22;63564;46.840;18.336;2024-02-04T04:55:10;7.79;85.71
75010;DHT22;63564;46.840;18.336;2024-02-04T04:58:10;7.70;85.71
75010;DHT22;63564;46.840;18.336;2024-02-04T05:01:11;7.77;85.22
75010;DHT22;63564;46.840;18.336;2024-02-04T05:04:11;7.75;85.53
75010;DHT22;63564;46.840;18.336;2024-02-04T05:07:11;7.68;85.42
75010;DHT22;63564;46.840;18.336;2024-02-04T05:10:12;7.79;85.03
75010;DHT22;63564;46.840;18.336;2024-02-04T05:13:12;7.80;85.12
75010;DHT22;63564;46.840;18.336;2024-02-04T05:16:13;7.76;84.98
75010;DHT22;63564;46.840;18.336;2024-02-04T05:19:13;7.79;85.01
75010;DHT22;63564;46.840;18.336;2024-02-04T05:22:13;7.80;85.09
75010;DHT22;63564;46.840;18.336;2024-02-04T05:25:14;7.75;85.29
75010;DHT22;63564;46.840;18.336;2024-02-04T05:28:14;7.70;85.57
75010;DHT22;63564;46.840;18.336;2024-02-04T05:31:14;7.70;85.50
75010;DHT22;63564;46.840;18.336;2024-02-04T05:34:15;7.72;85.69
75010;DHT22;63564;46.840;18.336;2024-02-04T05:37:15;7.70;85.70
75010;DHT22;63564;46.840;18.336;2024-02-04T05:40:15;7.83;85.73
75010;DHT22;63564;46.840;18.336;2024-02-04T05:43:18;7.75;86.21
75010;DHT22;63564;46.840;18.336;2024-02-04T05:46:19;7.77;86.32
75010;DHT22;63564;46.840;18.336;2024-02-04T05:49:19;7.93;85.83
75010;DHT22;63564;46.840;18.336;2024-02-04T05:52:19;7.97;85.68
75010;DHT22;63564;46.840;18.336;2024-02-04T05:55:20;8.06;85.70
75010;DHT22;63564;46.840;18.336;2024-02-04T05:58:20;8.01;85.83
75010;DHT22;63564;46.840;18.336;2024-02-04T06:01:21;8.04;85.78
75010;DHT22;63564;46.840;18.336;2024-02-04T06:04:21;8.08;86.01
75010;DHT22;63564;46.840;18.336;2024-02-04T06:07:22;7.98;86.72
75010;DHT22;63564;46.840;18.336;2024-02-04T06:10:22;7.83;87.99
75010;DHT22;63564;46.840;18.336;2024-02-04T06:13:22;7.73;89.04
75010;DHT22;63564;46.840;18.336;2024-02-04T06:16:23;7.83;89.24
75010;DHT22;63564;46.840;18.336;2024-02-04T06:19:23;7.86;89.26
75010;DHT22;63564;46.840;18.336;2024-02-04T06:22:23;7.86;89.68
75010;DHT22;63564;46.840;18.336;2024-02-04T06:25:24;8.03;89.25
75010;DHT22;63564;46.840;18.336;2024-02-04T06:28:25;8.11;89.04
75010;DHT22;63564;46.840;18.336;2024-02-04T06:31:25;8.11;89.14
75010;DHT22;63564;46.840;18.336;2024-02-04T06:34:25;8.15;89.21
75010;DHT22;63564;46.840;18.336;2024-02-04T06:37:26;8.30;88.76
75010;DHT22;63564;46.840;18.336;2024-02-04T06:40:26;8.31;88.72
75010;DHT22;63564;46.840;18.336;2024-02-04T06:43:26;8.51;88.11
75010;DHT22;63564;46.840;18.336;2024-02-04T06:46:27;8.51;87.91
75010;DHT22;63564;46.840;18.336;2024-02-04T06:49:27;8.61;87.62
75010;DHT22;63564;46.840;18.336;2024-02-04T06:52:28;8.69;87.22
75010;DHT22;63564;46.840;18.336;2024-02-04T06:55:28;8.62;87.16
75010;DHT22;63564;46.840;18.336;2024-02-04T06:58:29;8.55;87.81
75010;DHT22;63564;46.840;18.336;2024-02-04T07:01:29;8.77;86.60
75010;DHT22;63564;46.840;18.336;2024-02-04T07:04:29;8.71;86.51
75010;DHT22;63564;46.840;18.336;2024-02-04T07:07:30;8.72;86.58
75010;DHT22;63564;46.840;18.336;2024-02-04T07:10:30;8.75;86.50
75010;DHT22;63564;46.840;18.336;2024-02-04T07:13:30;8.92;85.90
75010;DHT22;63564;46.840;18.336;2024-02-04T07:16:31;9.06;85.38
75010;DHT22;63564;46.840;18.336;2024-02-04T07:19:31;9.20;84.89
75010;DHT22;63564;46.840;18.336;2024-02-04T07:22:32;9.07;85.89
75010;DHT22;63564;46.840;18.336;2024-02-04T07:25:32;9.14;85.20
75010;DHT22;63564;46.840;18.336;2024-02-04T07:28:34;9.10;85.78
75010;DHT22;63564;46.840;18.336;2024-02-04T07:31:35;9.19;85.33
75010;DHT22;63564;46.840;18.336;2024-02-04T07:34:37;9.19;85.25
75010;DHT22;63564;46.840;18.336;2024-02-04T07:37:38;9.09;85.94
75010;DHT22;63564;46.840;18.336;2024-02-04T07:40:38;9.04;86.32
75010;DHT22;63564;46.840;18.336;2024-02-04T07:43:38;8.97;86.84
75010;DHT22;63564;46.840;18.336;2024-02-04T07:46:39;8.92;87.34
75010;DHT22;63564;46.840;18.336;2024-02-04T07:49:39;8.93;87.81
75010;DHT22;63564;46.840;18.336;2024-02-04T07:52:39;8.87;87.43
75010;DHT22;63564;46.840;18.336;2024-02-04T07:55:40;9.04;88.17
75010;DHT22;63564;46.840;18.336;2024-02-04T07:58:40;9.10;86.47
75010;DHT22;63564;46.840;18.336;2024-02-04T08:01:41;9.20;86.41
75010;DHT22;63564;46.840;18.336;2024-02-04T08:04:41;9.30;86.57
75010;DHT22;63564;46.840;18.336;2024-02-04T08:07:41;9.38;85.60
75010;DHT22;63564;46.840;18.336;2024-02-04T08:10:42;9.37;85.12
75010;DHT22;63564;46.840;18.336;2024-02-04T08:13:42;9.49;84.61
75010;DHT22;63564;46.840;18.336;2024-02-04T08:16:43;9.75;84.57
75010;DHT22;63564;46.840;18.336;2024-02-04T08:19:43;10.24;82.83
75010;DHT22;63564;46.840;18.336;2024-02-04T08:22:44;10.47;81.81
75010;DHT22;63564;46.840;18.336;2024-02-04T08:25:44;10.57;81.32
75010;DHT22;63564;46.840;18.336;2024-02-04T08:28:45;10.92;80.02
75010;DHT22;63564;46.840;18.336;2024-02-04T08:31:45;11.09;79.40
75010;DHT22;63564;46.840;18.336;2024-02-04T08:34:45;11.33;77.87
75010;DHT22;63564;46.840;18.336;2024-02-04T08:37:46;11.48;78.12
75010;DHT22;63564;46.840;18.336;2024-02-04T08:40:46;11.65;76.27
75010;DHT22;63564;46.840;18.336;2024-02-04T08:43:47;11.94;75.00
75010;DHT22;63564;46.840;18.336;2024-02-04T08:46:47;12.09;73.88
75010;DHT22;63564;46.840;18.336;2024-02-04T08:49:48;12.23;73.46
75010;DHT22;63564;46.840;18.336;2024-02-04T08:52:48;12.25;73.69
75010;DHT22;63564;46.840;18.336;2024-02-04T08:55:48;12.43;73.06
75010;DHT22;63564;46.840;18.336;2024-02-04T08:58:49;12.51;72.62
75010;DHT22;63564;46.840;18.336;2024-02-04T09:01:49;12.71;71.87
75010;DHT22;63564;46.840;18.336;2024-02-04T09:04:50;12.83;70.41
75010;DHT22;63564;46.840;18.336;2024-02-04T09:07:50;12.98;69.76
75010;DHT22;63564;46.840;18.336;2024-02-04T09:10:51;12.99;69.36
75010;DHT22;63564;46.840;18.336;2024-02-04T09:13:52;13.04;69.07
75010;DHT22;63564;46.840;18.336;2024-02-04T09:16:52;13.02;69.30
75010;DHT22;63564;46.840;18.336;2024-02-04T09:19:53;13.19;68.65
75010;DHT22;63564;46.840;18.336;2024-02-04T09:22:53;13.33;68.52
75010;DHT22;63564;46.840;18.336;2024-02-04T09:25:54;13.44;68.55
75010;DHT22;63564;46.840;18.336;2024-02-04T09:28:54;13.57;66.55
75010;DHT22;63564;46.840;18.336;2024-02-04T09:31:55;13.40;67.27
75010;DHT22;63564;46.840;18.336;2024-02-04T09:34:55;13.26;66.49
75010;DHT22;63564;46.840;18.336;2024-02-04T09:37:55;13.30;65.89
75010;DHT22;63564;46.840;18.336;2024-02-04T09:40:56;13.42;65.29
75010;DHT22;63564;46.840;18.336;2024-02-04T09:43:56;13.54;64.96
75010;DHT22;63564;46.840;18.336;2024-02-04T09:46:58;13.56;64.78
75010;DHT22;63564;46.840;18.336;2024-02-04T09:49:59;13.63;64.06
75010;DHT22;63564;46.840;18.336;2024-02-04T09:53:00;13.75;63.91
75010;DHT22;63564;46.840;18.336;2024-02-04T09:56:05;13.90;62.94
75010;DHT22;63564;46.840;18.336;2024-02-04T09:59:06;14.14;63.10
75010;DHT22;63564;46.840;18.336;2024-02-04T10:02:07;13.84;63.18
75010;DHT22;63564;46.840;18.336;2024-02-04T10:05:08;13.90;62.55
75010;DHT22;63564;46.840;18.336;2024-02-04T10:08:10;14.25;62.24
75010;DHT22;63564;46.840;18.336;2024-02-04T10:11:11;14.65;60.90
75010;DHT22;63564;46.840;18.336;2024-02-04T10:14:11;14.65;60.84
75010;DHT22;63564;46.840;18.336;2024-02-04T10:17:15;14.79;60.67
75010;DHT22;63564;46.840;18.336;2024-02-04T10:20:15;14.75;59.34
75010;DHT22;63564;46.840;18.336;2024-02-04T10:23:16;15.14;59.53
75010;DHT22;63564;46.840;18.336;2024-02-04T10:26:17;15.01;59.61
75010;DHT22;63564;46.840;18.336;2024-02-04T10:29:20;14.87;59.37
75010;DHT22;63564;46.840;18.336;2024-02-04T10:32:22;14.77;58.92
75010;DHT22;63564;46.840;18.336;2024-02-04T10:35:23;14.80;58.86
75010;DHT22;63564;46.840;18.336;2024-02-04T10:38:24;14.88;59.44
75010;DHT22;63564;46.840;18.336;2024-02-04T10:41:29;14.39;60.54
75010;DHT22;63564;46.840;18.336;2024-02-04T10:44:35;14.39;61.00
75010;DHT22;63564;46.840;18.336;2024-02-04T10:47:39;14.67;59.66
75010;DHT22;63564;46.840;18.336;2024-02-04T10:50:41;14.57;59.66
75010;DHT22;63564;46.840;18.336;2024-02-04T10:53:44;14.55;60.39
75010;DHT22;63564;46.840;18.336;2024-02-04T10:56:46;14.45;59.93
75010;DHT22;63564;46.840;18.336;2024-02-04T10:59:47;14.91;59.11
75010;DHT22;63564;46.840;18.336;2024-02-04T11:02:49;15.05;58.73
75010;DHT22;63564;46.840;18.336;2024-02-04T11:05:51;15.08;58.35
75010;DHT22;63564;46.840;18.336;2024-02-04T11:08:52;14.83;59.17
75010;DHT22;63564;46.840;18.336;2024-02-04T11:11:58;14.63;59.63
75010;DHT22;63564;46.840;18.336;2024-02-04T11:15:01;14.95;58.49
75010;DHT22;63564;46.840;18.336;2024-02-04T11:25:22;15.15;57.51
75010;DHT22;63564;46.840;18.336;2024-02-04T11:28:26;15.87;56.63
75010;DHT22;63564;46.840;18.336;2024-02-04T11:31:28;15.76;55.41
75010;DHT22;63564;46.840;18.336;2024-02-04T11:34:30;15.80;56.09
75010;DHT22;63564;46.840;18.336;2024-02-04T11:37:31;15.51;55.72
75010;DHT22;63564;46.840;18.336;2024-02-04T11:40:36;15.32;56.32
75010;DHT22;63564;46.840;18.336;2024-02-04T11:43:37;15.31;56.61
75010;DHT22;63564;46.840;18.336;2024-02-04T11:46:37;15.34;57.05
75010;DHT22;63564;46.840;18.336;2024-02-04T11:49:38;15.43;56.46
75010;DHT22;63564;46.840;18.336;2024-02-04T11:52:39;15.80;55.47
75010;DHT22;63564;46.840;18.336;2024-02-04T11:55:40;16.03;54.90
75010;DHT22;63564;46.840;18.336;2024-02-04T11:58:41;16.00;55.81
75010;DHT22;63564;46.840;18.336;2024-02-04T12:01:41;15.80;54.86
75010;DHT22;63564;46.840;18.336;2024-02-04T12:04:44;15.90;54.13
75010;DHT22;63564;46.840;18.336;2024-02-04T12:07:45;15.96;54.40
75010;DHT22;63564;46.840;18.336;2024-02-04T12:10:46;16.25;54.06
75010;DHT22;63564;46.840;18.336;2024-02-04T12:13:50;16.11;55.13
75010;DHT22;63564;46.840;18.336;2024-02-04T12:16:50;15.73;55.22
75010;DHT22;63564;46.840;18.336;2024-02-04T12:19:52;15.35;55.89
75010;DHT22;63564;46.840;18.336;2024-02-04T12:22:53;14.97;56.61
75010;DHT22;63564;46.840;18.336;2024-02-04T12:25:53;14.95;58.48
75010;DHT22;63564;46.840;18.336;2024-02-04T12:28:54;14.70;58.56
75010;DHT22;63564;46.840;18.336;2024-02-04T12:31:59;14.57;59.14
75010;DHT22;63564;46.840;18.336;2024-02-04T12:35:00;14.63;58.79
75010;DHT22;63564;46.840;18.336;2024-02-04T12:38:01;15.01;58.97
75010;DHT22;63564;46.840;18.336;2024-02-04T12:41:02;15.39;58.18
75010;DHT22;63564;46.840;18.336;2024-02-04T12:44:03;15.87;56.98
75010;DHT22;63564;46.840;18.336;2024-02-04T12:47:05;15.91;55.23
75010;DHT22;63564;46.840;18.336;2024-02-04T12:50:06;15.74;55.91
75010;DHT22;63564;46.840;18.336;2024-02-04T12:53:09;15.70;56.29
75010;DHT22;63564;46.840;18.336;2024-02-04T12:56:11;15.39;56.87
75010;DHT22;63564;46.840;18.336;2024-02-04T12:59:23;15.22;57.30
75010;DHT22;63564;46.840;18.336;2024-02-04T13:02:24;15.41;58.15
75010;DHT22;63564;46.840;18.336;2024-02-04T13:05:26;15.63;56.66
75010;DHT22;63564;46.840;18.336;2024-02-04T13:08:26;15.69;56.13
75010;DHT22;63564;46.840;18.336;2024-02-04T13:11:30;15.93;57.10
75010;DHT22;63564;46.840;18.336;2024-02-04T13:14:30;15.80;56.87
75010;DHT22;63564;46.840;18.336;2024-02-04T13:17:31;15.53;57.17
75010;DHT22;63564;46.840;18.336;2024-02-04T13:20:31;15.39;57.96
75010;DHT22;63564;46.840;18.336;2024-02-04T13:23:32;15.27;58.12
75010;DHT22;63564;46.840;18.336;2024-02-04T13:26:34;15.24;58.00
75010;DHT22;63564;46.840;18.336;2024-02-04T13:29:35;15.31;57.75
75010;DHT22;63564;46.840;18.336;2024-02-04T13:32:35;15.60;56.95
75010;DHT22;63564;46.840;18.336;2024-02-04T13:35:36;15.41;57.93
75010;DHT22;63564;46.840;18.336;2024-02-04T13:38:36;15.22;58.47
75010;DHT22;63564;46.840;18.336;2024-02-04T13:41:37;15.27;59.13
75010;DHT22;63564;46.840;18.336;2024-02-04T13:44:37;15.11;59.08
75010;DHT22;63564;46.840;18.336;2024-02-04T13:47:37;15.20;59.42
75010;DHT22;63564;46.840;18.336;2024-02-04T13:50:38;14.91;60.21
75010;DHT22;63564;46.840;18.336;2024-02-04T13:53:38;14.93;59.33
75010;DHT22;63564;46.840;18.336;2024-02-04T13:56:39;14.86;59.82
75010;DHT22;63564;46.840;18.336;2024-02-04T13:59:39;14.77;60.27
75010;DHT22;63564;46.840;18.336;2024-02-04T14:02:39;14.69;60.78
75010;DHT22;63564;46.840;18.336;2024-02-04T14:05:40;14.88;60.22
75010;DHT22;63564;46.840;18.336;2024-02-04T14:08:41;15.08;60.20
75010;DHT22;63564;46.840;18.336;2024-02-04T14:11:41;14.91;60.58
75010;DHT22;63564;46.840;18.336;2024-02-04T14:14:42;14.76;60.78
75010;DHT22;63564;46.840;18.336;2024-02-04T14:17:42;14.75;60.85
75010;DHT22;63564;46.840;18.336;2024-02-04T14:20:43;14.72;60.96
75010;DHT22;63564;46.840;18.336;2024-02-04T14:23:43;14.69;60.79
75010;DHT22;63564;46.840;18.336;2024-02-04T14:26:43;14.65;60.65
75010;DHT22;63564;46.840;18.336;2024-02-04T14:29:44;14.49;60.62
75010;DHT22;63564;46.840;18.336;2024-02-04T14:32:45;14.43;61.20
75010;DHT22;63564;46.840;18.336;2024-02-04T14:35:45;14.57;61.27
75010;DHT22;63564;46.840;18.336;2024-02-04T14:38:45;14.87;60.55
75010;DHT22;63564;46.840;18.336;2024-02-04T14:41:46;15.07;60.43
75010;DHT22;63564;46.840;18.336;2024-02-04T14:44:46;15.30;59.89
75010;DHT22;63564;46.840;18.336;2024-02-04T14:47:47;15.31;60.16
75010;DHT22;63564;46.840;18.336;2024-02-04T14:50:48;15.28;60.35
75010;DHT22;63564;46.840;18.336;2024-02-04T14:53:48;15.11;60.61
75010;DHT22;63564;46.840;18.336;2024-02-04T14:56:48;15.20;60.28
75010;DHT22;63564;46.840;18.336;2024-02-04T14:59:51;15.25;60.11
75010;DHT22;63564;46.840;18.336;2024-02-04T15:02:52;15.18;59.97
75010;DHT22;63564;46.840;18.336;2024-02-04T15:05:52;14.91;60.87
75010;DHT22;63564;46.840;18.336;2024-02-04T15:08:53;14.70;62.74
75010;DHT22;63564;46.840;18.336;2024-02-04T15:11:53;14.59;62.28
75010;DHT22;63564;46.840;18.336;2024-02-04T15:14:54;14.45;62.66
75010;DHT22;63564;46.840;18.336;2024-02-04T15:17:55;14.26;63.46
75010;DHT22;63564;46.840;18.336;2024-02-04T15:20:56;14.12;63.82
75010;DHT22;63564;46.840;18.336;2024-02-04T15:23:56;13.95;64.13
75010;DHT22;63564;46.840;18.336;2024-02-04T15:26:58;13.90;64.26
75010;DHT22;63564;46.840;18.336;2024-02-04T15:30:05;13.78;64.68
75010;DHT22;63564;46.840;18.336;2024-02-04T15:33:07;13.67;65.02
75010;DHT22;63564;46.840;18.336;2024-02-04T15:36:08;13.57;65.39
75010;DHT22;63564;46.840;18.336;2024-02-04T15:39:08;13.43;65.96
75010;DHT22;63564;46.840;18.336;2024-02-04T15:42:11;13.32;66.22
75010;DHT22;63564;46.840;18.336;2024-02-04T15:45:11;13.16;66.80
75010;DHT22;63564;46.840;18.336;2024-02-04T15:48:18;13.05;67.26
75010;DHT22;63564;46.840;18.336;2024-02-04T15:51:21;12.89;67.75
75010;DHT22;63564;46.840;18.336;2024-02-04T15:54:22;12.77;68.07
75010;DHT22;63564;46.840;18.336;2024-02-04T15:57:28;12.64;68.45
75010;DHT22;63564;46.840;18.336;2024-02-04T16:00:33;12.44;68.48
75010;DHT22;63564;46.840;18.336;2024-02-04T16:03:34;12.37;68.83
75010;DHT22;63564;46.840;18.336;2024-02-04T16:06:34;12.32;68.79
75010;DHT22;63564;46.840;18.336;2024-02-04T16:09:35;12.25;68.88
75010;DHT22;63564;46.840;18.336;2024-02-04T16:12:41;12.16;69.26
75010;DHT22;63564;46.840;18.336;2024-02-04T16:15:42;12.03;69.68
75010;DHT22;63564;46.840;18.336;2024-02-04T16:18:46;11.98;69.74
75010;DHT22;63564;46.840;18.336;2024-02-04T16:21:47;11.86;70.19
75010;DHT22;63564;46.840;18.336;2024-02-04T16:24:48;11.73;70.65
75010;DHT22;63564;46.840;18.336;2024-02-04T16:27:49;11.60;71.09
75010;DHT22;63564;46.840;18.336;2024-02-04T16:30:49;11.48;71.51
75010;DHT22;63564;46.840;18.336;2024-02-04T16:33:50;11.41;71.73
75010;DHT22;63564;46.840;18.336;2024-02-04T16:36:50;11.36;71.81
75010;DHT22;63564;46.840;18.336;2024-02-04T16:39:51;11.26;71.96
75010;DHT22;63564;46.840;18.336;2024-02-04T16:42:51;11.15;72.24
75010;DHT22;63564;46.840;18.336;2024-02-04T16:45:52;11.02;72.47
75010;DHT22;63564;46.840;18.336;2024-02-04T16:48:52;10.96;72.74
75010;DHT22;63564;46.840;18.336;2024-02-04T16:51:53;10.79;72.87
75010;DHT22;63564;46.840;18.336;2024-02-04T16:54:53;10.69;73.19
75010;DHT22;63564;46.840;18.336;2024-02-04T16:57:53;10.61;73.19
75010;DHT22;63564;46.840;18.336;2024-02-04T17:00:54;10.51;73.36
75010;DHT22;63564;46.840;18.336;2024-02-04T17:03:55;10.34;73.76
75010;DHT22;63564;46.840;18.336;2024-02-04T17:06:55;10.12;74.59
75010;DHT22;63564;46.840;18.336;2024-02-04T17:09:56;9.97;75.24
75010;DHT22;63564;46.840;18.336;2024-02-04T17:12:57;9.96;75.30
75010;DHT22;63564;46.840;18.336;2024-02-04T17:15:58;9.66;75.95
75010;DHT22;63564;46.840;18.336;2024-02-04T17:19:11;9.52;77.18
75010;DHT22;63564;46.840;18.336;2024-02-04T17:22:19;9.57;76.87
75010;DHT22;63564;46.840;18.336;2024-02-04T17:25:22;9.54;77.11
75010;DHT22;63564;46.840;18.336;2024-02-04T17:28:28;9.58;76.84
75010;DHT22;63564;46.840;18.336;2024-02-04T17:31:29;9.47;77.14
75010;DHT22;63564;46.840;18.336;2024-02-04T17:34:30;9.37;77.19
75010;DHT22;63564;46.840;18.336;2024-02-04T17:37:31;9.23;77.54
75010;DHT22;63564;46.840;18.336;2024-02-04T17:40:32;9.06;77.88
75010;DHT22;63564;46.840;18.336;2024-02-04T17:43:34;8.83;78.29
75010;DHT22;63564;46.840;18.336;2024-02-04T17:46:34;8.51;79.14
75010;DHT22;63564;46.840;18.336;2024-02-04T17:49:34;8.41;79.50
75010;DHT22;63564;46.840;18.336;2024-02-04T17:52:35;8.34;79.69
75010;DHT22;63564;46.840;18.336;2024-02-04T17:55:35;8.27;79.90
75010;DHT22;63564;46.840;18.336;2024-02-04T17:58:38;8.31;80.18
75010;DHT22;63564;46.840;18.336;2024-02-04T18:01:39;8.56;79.41
75010;DHT22;63564;46.840;18.336;2024-02-04T18:04:39;8.76;78.76
75010;DHT22;63564;46.840;18.336;2024-02-04T18:07:40;8.87;78.57
75010;DHT22;63564;46.840;18.336;2024-02-04T18:10:43;8.96;78.04
75010;DHT22;63564;46.840;18.336;2024-02-04T18:13:44;8.86;78.09
75010;DHT22;63564;46.840;18.336;2024-02-04T18:16:45;9.09;77.52
75010;DHT22;63564;46.840;18.336;2024-02-04T18:19:45;9.14;76.98
75010;DHT22;63564;46.840;18.336;2024-02-04T18:22:46;8.93;77.32
75010;DHT22;63564;46.840;18.336;2024-02-04T18:25:46;8.83;77.76
75010;DHT22;63564;46.840;18.336;2024-02-04T18:28:46;8.84;77.47
75010;DHT22;63564;46.840;18.336;2024-02-04T18:31:47;9.11;76.31
75010;DHT22;63564;46.840;18.336;2024-02-04T18:34:47;9.09;76.37
75010;DHT22;63564;46.840;18.336;2024-02-04T18:37:48;9.00;76.31
75010;DHT22;63564;46.840;18.336;2024-02-04T18:40:48;8.94;76.20
75010;DHT22;63564;46.840;18.336;2024-02-04T18:43:49;9.01;76.29
75010;DHT22;63564;46.840;18.336;2024-02-04T18:46:50;9.07;76.06
75010;DHT22;63564;46.840;18.336;2024-02-04T18:49:52;8.90;76.51
75010;DHT22;63564;46.840;18.336;2024-02-04T18:52:54;8.79;77.21
75010;DHT22;63564;46.840;18.336;2024-02-04T18:55:55;8.63;78.07
75010;DHT22;63564;46.840;18.336;2024-02-04T18:58:58;8.55;78.26
75010;DHT22;63564;46.840;18.336;2024-02-04T19:01:59;8.84;77.73
75010;DHT22;63564;46.840;18.336;2024-02-04T19:05:00;8.68;77.98
75010;DHT22;63564;46.840;18.336;2024-02-04T19:08:00;8.59;78.48